Terminal Aerodrome Forecast
Issued by NWS Grand Forks, ND

Home | Current Version | Previous Version | Text Only | Print | Product List | Glossary On
Versions: 1 2 3 4 5 6 7 8 9 10 11 12 13 14 15 16 17 18
000
FTUS43 KFGF 202300
TAFGFK
TAF
KGFK 202336Z 2100/2124 33020G30KT P6SM SCT020 BKN030
     FM210400 33020KT P6SM BKN025 OVC040
     FM210700 32019KT P6SM BKN020 OVC030
     FM211500 33022G30KT P6SM SCT020 BKN030=

USA.gov is the U.S. government's official web portal to all federal, state and local government web resources and services.